AUA249 LGIR-LOWW
Flight info
| Callsign | AUA249 |
|---|---|
| Flight time | N/A |
| Altitude | 34000 |
| Route | EPAL1V EPALO M749 DIRMI UL613 YNN UL604 DIMIS DCT ADDER DCT RETRA DCT OBUTI PESAT |
| Aircraft | A340/H-SDE3FGHIRWY/LB1 |
Departure
| Time | 2026-05-06 11:30 |
|---|---|
| Airport | Heraklion International Nikos Kazantzakis Airport (LGIR) |
Arrival
| Time | N/A |
|---|---|
| Airport | Vienna International Airport (LOWW) |
| Time | Latitude | Longitude | Altitude | Speed | Heading |
|---|---|---|---|---|---|
| 2026-05-06 11:15 | 35.33861 | 25.17436 | 89 ft | 0 kts | 273° |
| 2026-05-06 11:24 | 35.33861 | 25.17458 | 91 ft | 3 kts | 293° |
| 2026-05-06 11:24 | 35.33851 | 25.17476 | 93 ft | 3 kts | 334° |
| 2026-05-06 11:25 | 35.33838 | 25.17483 | 90 ft | 0 kts | 4° |
| 2026-05-06 11:25 | 35.33856 | 25.17489 | 92 ft | 7 kts | 15° |
| 2026-05-06 11:25 | 35.33901 | 25.17538 | 97 ft | 11 kts | 69° |
| 2026-05-06 11:26 | 35.33904 | 25.17637 | 97 ft | 12 kts | 92° |
| 2026-05-06 11:26 | 35.33898 | 25.17732 | 97 ft | 11 kts | 96° |
| 2026-05-06 11:26 | 35.33889 | 25.17830 | 99 ft | 12 kts | 95° |
| 2026-05-06 11:26 | 35.33881 | 25.17936 | 104 ft | 12 kts | 96° |
| 2026-05-06 11:27 | 35.33872 | 25.18048 | 104 ft | 20 kts | 96° |
| 2026-05-06 11:27 | 35.33864 | 25.18212 | 108 ft | 21 kts | 94° |
| 2026-05-06 11:27 | 35.33849 | 25.18420 | 111 ft | 28 kts | 95° |
| 2026-05-06 11:27 | 35.33831 | 25.18675 | 116 ft | 32 kts | 92° |
| 2026-05-06 11:28 | 35.33816 | 25.18914 | 118 ft | 18 kts | 88° |
| 2026-05-06 11:28 | 35.33869 | 25.19056 | 120 ft | 15 kts | 37° |
| 2026-05-06 11:28 | 35.33908 | 25.19058 | 119 ft | 2 kts | 342° |
| 2026-05-06 11:28 | 35.33919 | 25.19049 | 117 ft | 1 kts | 319° |
| 2026-05-06 11:29 | 35.33916 | 25.19015 | 118 ft | 9 kts | 256° |
| 2026-05-06 11:29 | 35.33916 | 25.18885 | 117 ft | 26 kts | 273° |
| 2026-05-06 11:29 | 35.33950 | 25.18399 | 108 ft | 90 kts | 276° |
| 2026-05-06 11:29 | 35.34022 | 25.17387 | 91 ft | 146 kts | 275° |
| 2026-05-06 11:30 | 35.34133 | 25.15968 | 152 ft | 185 kts | 276° |
| 2026-05-06 11:30 | 35.34309 | 25.14487 | 969 ft | 172 kts | 295° |
| 2026-05-06 11:30 | 35.35155 | 25.13539 | 1552 ft | 175 kts | 337° |
| 2026-05-06 11:30 | 35.36415 | 25.13125 | 1904 ft | 199 kts | 352° |
| 2026-05-06 11:31 | 35.37852 | 25.12931 | 2414 ft | 217 kts | 355° |
| 2026-05-06 11:31 | 35.39441 | 25.12731 | 2919 ft | 240 kts | 349° |
| 2026-05-06 11:31 | 35.41108 | 25.12288 | 3735 ft | 249 kts | 345° |
| 2026-05-06 11:31 | 35.42775 | 25.11680 | 4198 ft | 255 kts | 342° |
| 2026-05-06 11:32 | 35.44507 | 25.11065 | 4897 ft | 262 kts | 343° |
| 2026-05-06 11:32 | 35.46260 | 25.10419 | 5477 ft | 264 kts | 342° |
| 2026-05-06 11:32 | 35.48029 | 25.09749 | 6045 ft | 267 kts | 342° |
| 2026-05-06 11:32 | 35.49811 | 25.09078 | 6621 ft | 268 kts | 342° |
| 2026-05-06 11:33 | 35.51600 | 25.08406 | 7167 ft | 269 kts | 342° |
| 2026-05-06 11:33 | 35.53393 | 25.07735 | 7723 ft | 270 kts | 342° |
| 2026-05-06 11:33 | 35.55191 | 25.07063 | 8256 ft | 271 kts | 342° |
| 2026-05-06 11:33 | 35.56991 | 25.06381 | 8741 ft | 270 kts | 341° |
| 2026-05-06 11:34 | 35.58804 | 25.05690 | 9295 ft | 274 kts | 343° |
| 2026-05-06 11:34 | 35.60613 | 25.05047 | 10080 ft | 274 kts | 343° |
| 2026-05-06 11:34 | 35.62462 | 25.04381 | 10567 ft | 283 kts | 343° |
| 2026-05-06 11:34 | 35.64425 | 25.03662 | 10847 ft | 298 kts | 342° |
| 2026-05-06 11:35 | 35.66435 | 25.02918 | 11098 ft | 313 kts | 342° |
| 2026-05-06 11:35 | 35.68572 | 25.02120 | 11364 ft | 328 kts | 342° |
| 2026-05-06 11:35 | 35.70798 | 25.01285 | 11640 ft | 341 kts | 342° |
| 2026-05-06 11:35 | 35.73089 | 25.00404 | 12111 ft | 348 kts | 340° |
| 2026-05-06 11:36 | 35.75384 | 24.99384 | 12667 ft | 352 kts | 338° |
| 2026-05-06 11:36 | 35.77671 | 24.98280 | 13276 ft | 355 kts | 337° |
| 2026-05-06 11:36 | 35.79979 | 24.97140 | 13881 ft | 358 kts | 337° |
| 2026-05-06 11:36 | 35.82304 | 24.95998 | 14421 ft | 361 kts | 337° |
| 2026-05-06 11:37 | 35.84647 | 24.94864 | 14978 ft | 364 kts | 337° |
| 2026-05-06 11:37 | 35.87014 | 24.93733 | 15524 ft | 366 kts | 338° |
| 2026-05-06 11:37 | 35.88665 | 24.92951 | 15893 ft | 368 kts | 338° |
| 2026-05-06 11:38 | 35.90589 | 24.92043 | 16326 ft | 369 kts | 338° |
| 2026-05-06 11:38 | 35.92999 | 24.90910 | 16850 ft | 372 kts | 338° |
| 2026-05-06 11:39 | 35.95250 | 24.89851 | 17350 ft | 374 kts | 337° |
| 2026-05-06 11:41 | 35.96361 | 24.89328 | 17595 ft | 375 kts | 338° |
| 2026-05-06 11:41 | 35.98814 | 24.88174 | 18063 ft | 379 kts | 338° |
| 2026-05-06 11:41 | 36.01289 | 24.87007 | 18539 ft | 382 kts | 338° |
| 2026-05-06 11:41 | 36.03765 | 24.85797 | 18965 ft | 383 kts | 334° |
| 2026-05-06 11:42 | 36.06099 | 24.84205 | 19426 ft | 384 kts | 325° |
| 2026-05-06 11:42 | 36.08271 | 24.82269 | 19854 ft | 386 kts | 322° |
| 2026-05-06 11:42 | 36.10378 | 24.80198 | 20281 ft | 388 kts | 320° |
| 2026-05-06 11:42 | 36.12457 | 24.78048 | 20717 ft | 390 kts | 319° |
| 2026-05-06 11:43 | 36.14525 | 24.75865 | 21145 ft | 392 kts | 319° |
| 2026-05-06 11:43 | 36.16602 | 24.73665 | 21564 ft | 394 kts | 319° |
| 2026-05-06 11:43 | 36.18695 | 24.71456 | 21958 ft | 396 kts | 319° |
| 2026-05-06 11:44 | 36.22931 | 24.67022 | 22751 ft | 400 kts | 320° |
| 2026-05-06 11:44 | 36.25067 | 24.64797 | 23148 ft | 402 kts | 320° |
| 2026-05-06 11:44 | 36.27189 | 24.62588 | 23551 ft | 404 kts | 320° |
| 2026-05-06 11:44 | 36.29343 | 24.60346 | 23873 ft | 406 kts | 320° |
| 2026-05-06 11:45 | 36.31509 | 24.58089 | 24178 ft | 408 kts | 320° |
| 2026-05-06 11:45 | 36.33687 | 24.55818 | 24482 ft | 410 kts | 320° |
| 2026-05-06 11:45 | 36.35872 | 24.53537 | 24778 ft | 412 kts | 320° |
| 2026-05-06 11:45 | 36.38069 | 24.51242 | 25071 ft | 413 kts | 320° |
| 2026-05-06 11:46 | 36.40271 | 24.48939 | 25377 ft | 415 kts | 320° |
| 2026-05-06 11:46 | 36.42485 | 24.46622 | 25656 ft | 417 kts | 319° |
| 2026-05-06 11:46 | 36.44708 | 24.44294 | 25935 ft | 419 kts | 319° |
| 2026-05-06 11:46 | 36.46940 | 24.41954 | 26197 ft | 420 kts | 319° |
| 2026-05-06 11:47 | 36.49178 | 24.39606 | 26481 ft | 422 kts | 319° |
| 2026-05-06 11:47 | 36.51426 | 24.37245 | 26748 ft | 424 kts | 319° |
| 2026-05-06 11:47 | 36.53688 | 24.34868 | 27013 ft | 425 kts | 319° |
| 2026-05-06 11:47 | 36.55952 | 24.32489 | 27286 ft | 427 kts | 319° |
| 2026-05-06 11:48 | 36.58216 | 24.30105 | 27547 ft | 428 kts | 319° |
| 2026-05-06 11:48 | 36.60497 | 24.27703 | 27781 ft | 430 kts | 319° |
| 2026-05-06 11:48 | 36.62783 | 24.25293 | 28033 ft | 431 kts | 319° |
| 2026-05-06 11:48 | 36.65075 | 24.22876 | 28272 ft | 433 kts | 319° |
| 2026-05-06 11:49 | 36.67348 | 24.20476 | 28504 ft | 435 kts | 319° |
| 2026-05-06 11:49 | 36.69659 | 24.18035 | 28742 ft | 436 kts | 319° |
| 2026-05-06 11:49 | 36.71976 | 24.15584 | 28971 ft | 437 kts | 319° |
| 2026-05-06 11:49 | 36.74299 | 24.13125 | 29192 ft | 439 kts | 319° |
| 2026-05-06 11:50 | 36.76628 | 24.10658 | 29409 ft | 440 kts | 319° |
| 2026-05-06 11:50 | 36.78966 | 24.08179 | 29629 ft | 442 kts | 319° |
| 2026-05-06 11:50 | 36.81317 | 24.05686 | 29815 ft | 444 kts | 319° |
| 2026-05-06 11:50 | 36.83674 | 24.03183 | 30014 ft | 446 kts | 319° |
| 2026-05-06 11:51 | 36.86033 | 24.00676 | 30291 ft | 445 kts | 319° |
| 2026-05-06 11:51 | 36.88388 | 23.98171 | 30545 ft | 444 kts | 319° |
| 2026-05-06 11:51 | 36.90737 | 23.95670 | 30802 ft | 443 kts | 319° |
| 2026-05-06 11:51 | 36.93084 | 23.93170 | 31047 ft | 443 kts | 319° |
| 2026-05-06 11:52 | 36.95429 | 23.90669 | 31285 ft | 442 kts | 319° |
| 2026-05-06 11:52 | 36.97772 | 23.88169 | 31531 ft | 442 kts | 319° |
| 2026-05-06 11:52 | 37.00108 | 23.85674 | 31755 ft | 441 kts | 319° |
| 2026-05-06 11:52 | 37.02441 | 23.83179 | 31978 ft | 441 kts | 319° |
| 2026-05-06 11:53 | 37.04772 | 23.80686 | 32208 ft | 440 kts | 318° |
| 2026-05-06 11:53 | 37.07098 | 23.78195 | 32436 ft | 440 kts | 318° |
| 2026-05-06 11:53 | 37.09420 | 23.75706 | 32638 ft | 439 kts | 318° |
| 2026-05-06 11:53 | 37.11741 | 23.73216 | 32818 ft | 440 kts | 318° |
| 2026-05-06 11:54 | 37.14064 | 23.70722 | 33031 ft | 439 kts | 318° |
| 2026-05-06 11:54 | 37.16385 | 23.68229 | 33274 ft | 438 kts | 318° |
| 2026-05-06 11:54 | 37.18667 | 23.65775 | 33476 ft | 437 kts | 318° |
| 2026-05-06 11:54 | 37.21004 | 23.63260 | 33666 ft | 437 kts | 318° |
| 2026-05-06 11:55 | 37.23279 | 23.60810 | 33859 ft | 436 kts | 318° |
| 2026-05-06 11:55 | 37.25582 | 23.58327 | 34037 ft | 436 kts | 318° |
| 2026-05-06 11:55 | 37.30217 | 23.53322 | 34089 ft | 442 kts | 318° |
| 2026-05-06 11:56 | 37.34920 | 23.48236 | 34094 ft | 449 kts | 318° |
| 2026-05-06 11:56 | 37.39698 | 23.43061 | 34091 ft | 456 kts | 318° |
| 2026-05-06 11:57 | 37.44528 | 23.37821 | 34088 ft | 460 kts | 317° |
| 2026-05-06 11:57 | 37.49375 | 23.32555 | 34066 ft | 460 kts | 317° |
| 2026-05-06 11:58 | 37.54221 | 23.27279 | 34066 ft | 460 kts | 317° |
| 2026-05-06 11:58 | 37.59056 | 23.22005 | 34082 ft | 460 kts | 317° |
| 2026-05-06 11:59 | 37.63895 | 23.16717 | 34064 ft | 460 kts | 317° |
| 2026-05-06 11:59 | 37.68727 | 23.11425 | 34064 ft | 460 kts | 317° |
| 2026-05-06 12:00 | 37.73570 | 23.06117 | 34065 ft | 461 kts | 317° |
| 2026-05-06 12:00 | 37.78381 | 23.00830 | 34081 ft | 461 kts | 317° |
| 2026-05-06 12:01 | 37.83220 | 22.95503 | 34065 ft | 461 kts | 317° |
| 2026-05-06 12:01 | 37.88062 | 22.90164 | 34064 ft | 462 kts | 317° |
| 2026-05-06 12:02 | 37.92906 | 22.84814 | 34083 ft | 462 kts | 317° |
| 2026-05-06 12:02 | 37.97742 | 22.79463 | 34096 ft | 461 kts | 317° |
| 2026-05-06 12:03 | 38.02589 | 22.74089 | 34068 ft | 463 kts | 317° |
| 2026-05-06 12:03 | 38.07442 | 22.68699 | 34089 ft | 463 kts | 317° |
| 2026-05-06 12:04 | 38.12295 | 22.63299 | 34088 ft | 464 kts | 317° |
| 2026-05-06 12:04 | 38.17115 | 22.57926 | 34069 ft | 464 kts | 317° |
| 2026-05-06 12:05 | 38.21958 | 22.52517 | 34074 ft | 463 kts | 317° |
| 2026-05-06 12:05 | 38.26808 | 22.47091 | 34080 ft | 462 kts | 317° |
| 2026-05-06 12:06 | 38.31644 | 22.41670 | 34092 ft | 464 kts | 316° |
| 2026-05-06 12:06 | 38.36491 | 22.36227 | 34073 ft | 464 kts | 316° |
| 2026-05-06 12:07 | 38.41332 | 22.30781 | 34071 ft | 464 kts | 316° |
| 2026-05-06 12:07 | 38.46138 | 22.25362 | 34097 ft | 464 kts | 316° |
| 2026-05-06 12:08 | 38.50974 | 22.19900 | 34077 ft | 464 kts | 316° |
| 2026-05-06 12:08 | 38.55814 | 22.14424 | 34082 ft | 464 kts | 316° |
| 2026-05-06 12:09 | 38.59835 | 22.09869 | 34092 ft | 466 kts | 316° |
| 2026-05-06 12:09 | 38.64691 | 22.04362 | 34084 ft | 466 kts | 316° |
| 2026-05-06 12:10 | 38.69542 | 21.98841 | 34082 ft | 466 kts | 316° |
| 2026-05-06 12:10 | 38.74238 | 21.93487 | 34101 ft | 465 kts | 316° |
| 2026-05-06 12:11 | 38.78867 | 21.88199 | 34083 ft | 466 kts | 316° |
| 2026-05-06 12:11 | 38.83696 | 21.82678 | 34092 ft | 464 kts | 316° |
| 2026-05-06 12:12 | 38.88514 | 21.77158 | 34094 ft | 465 kts | 315° |
| 2026-05-06 12:12 | 38.93334 | 21.71624 | 34091 ft | 466 kts | 315° |
| 2026-05-06 12:13 | 38.98168 | 21.66063 | 34089 ft | 465 kts | 315° |
| 2026-05-06 12:13 | 39.02984 | 21.60512 | 34093 ft | 466 kts | 315° |
| 2026-05-06 12:14 | 39.07802 | 21.54948 | 34089 ft | 466 kts | 315° |
| 2026-05-06 12:14 | 39.12619 | 21.49375 | 34100 ft | 465 kts | 315° |
| 2026-05-06 12:15 | 39.17423 | 21.43808 | 34095 ft | 465 kts | 315° |
| 2026-05-06 12:15 | 39.22232 | 21.38223 | 34101 ft | 465 kts | 315° |
| 2026-05-06 12:16 | 39.27039 | 21.32626 | 34096 ft | 465 kts | 315° |
| 2026-05-06 12:16 | 39.31807 | 21.27068 | 34110 ft | 465 kts | 315° |
| 2026-05-06 12:17 | 39.36602 | 21.21466 | 34110 ft | 465 kts | 315° |
| 2026-05-06 12:17 | 39.41404 | 21.15849 | 34100 ft | 464 kts | 315° |
| 2026-05-06 12:18 | 39.46201 | 21.10223 | 34109 ft | 467 kts | 315° |
| 2026-05-06 12:18 | 39.51019 | 21.04561 | 34111 ft | 467 kts | 315° |
| 2026-05-06 12:19 | 39.55837 | 20.98890 | 34119 ft | 467 kts | 315° |
| 2026-05-06 12:19 | 39.60617 | 20.93252 | 34125 ft | 467 kts | 315° |
| 2026-05-06 12:20 | 39.65428 | 20.87566 | 34133 ft | 466 kts | 315° |
| 2026-05-06 12:20 | 39.70453 | 20.82232 | 34130 ft | 470 kts | 325° |
| 2026-05-06 12:21 | 39.76325 | 20.78246 | 34133 ft | 475 kts | 331° |
| 2026-05-06 12:21 | 39.82280 | 20.74624 | 34121 ft | 476 kts | 332° |
| 2026-05-06 12:22 | 39.88299 | 20.71018 | 34125 ft | 476 kts | 332° |
| 2026-05-06 12:22 | 39.94286 | 20.67400 | 34097 ft | 474 kts | 332° |
| 2026-05-06 12:23 | 40.00262 | 20.63758 | 34084 ft | 474 kts | 331° |
| 2026-05-06 12:23 | 40.06224 | 20.60112 | 34079 ft | 474 kts | 331° |
| 2026-05-06 12:24 | 40.12180 | 20.56409 | 34085 ft | 473 kts | 330° |
| 2026-05-06 12:24 | 40.18082 | 20.52605 | 34080 ft | 472 kts | 330° |
| 2026-05-06 12:25 | 40.23938 | 20.48821 | 34078 ft | 472 kts | 330° |
| 2026-05-06 12:25 | 40.29834 | 20.45026 | 34066 ft | 472 kts | 330° |
| 2026-05-06 12:26 | 40.35747 | 20.41224 | 34082 ft | 473 kts | 330° |
| 2026-05-06 12:26 | 40.41667 | 20.37410 | 34066 ft | 474 kts | 330° |
| 2026-05-06 12:27 | 40.47586 | 20.33589 | 34076 ft | 474 kts | 330° |
| 2026-05-06 12:27 | 40.53506 | 20.29765 | 34076 ft | 474 kts | 331° |
| 2026-05-06 12:28 | 40.59561 | 20.26300 | 34074 ft | 475 kts | 335° |
| 2026-05-06 12:28 | 40.65672 | 20.23047 | 34085 ft | 476 kts | 335° |
| 2026-05-06 12:29 | 40.71794 | 20.19715 | 34079 ft | 477 kts | 334° |
| 2026-05-06 12:29 | 40.77916 | 20.16317 | 34080 ft | 477 kts | 334° |
| 2026-05-06 12:30 | 40.84029 | 20.12899 | 34087 ft | 478 kts | 334° |
| 2026-05-06 12:30 | 40.90148 | 20.09472 | 34086 ft | 478 kts | 334° |
| 2026-05-06 12:31 | 40.96270 | 20.06040 | 34084 ft | 478 kts | 334° |
| 2026-05-06 12:31 | 41.02390 | 20.02604 | 34088 ft | 478 kts | 334° |
| 2026-05-06 12:32 | 41.08511 | 19.99160 | 34085 ft | 478 kts | 334° |
| 2026-05-06 12:32 | 41.14641 | 19.95704 | 34092 ft | 478 kts | 334° |
| 2026-05-06 12:33 | 41.20756 | 19.92248 | 34091 ft | 478 kts | 334° |
| 2026-05-06 12:33 | 41.26840 | 19.88804 | 34104 ft | 478 kts | 334° |
| 2026-05-06 12:34 | 41.32959 | 19.85333 | 34100 ft | 478 kts | 334° |
| 2026-05-06 12:34 | 41.39077 | 19.81855 | 34103 ft | 478 kts | 334° |
| 2026-05-06 12:35 | 41.45199 | 19.78367 | 34102 ft | 479 kts | 334° |
| 2026-05-06 12:35 | 41.51332 | 19.74866 | 34082 ft | 479 kts | 333° |
| 2026-05-06 12:36 | 41.57458 | 19.71363 | 34098 ft | 479 kts | 333° |
| 2026-05-06 12:36 | 41.63581 | 19.67853 | 34092 ft | 479 kts | 333° |
| 2026-05-06 12:37 | 41.69710 | 19.64333 | 34092 ft | 479 kts | 333° |
| 2026-05-06 12:37 | 41.75832 | 19.60809 | 34083 ft | 479 kts | 333° |
| 2026-05-06 12:38 | 41.81964 | 19.57273 | 34084 ft | 479 kts | 333° |
| 2026-05-06 12:38 | 41.88081 | 19.53738 | 34082 ft | 479 kts | 333° |
| 2026-05-06 12:39 | 41.94172 | 19.50210 | 34080 ft | 479 kts | 333° |
| 2026-05-06 12:39 | 42.00311 | 19.46646 | 34078 ft | 480 kts | 333° |
| 2026-05-06 12:40 | 42.06452 | 19.43075 | 34076 ft | 481 kts | 333° |
| 2026-05-06 12:40 | 42.12606 | 19.39488 | 34078 ft | 481 kts | 333° |
| 2026-05-06 12:41 | 42.18764 | 19.35891 | 34080 ft | 482 kts | 333° |
| 2026-05-06 12:41 | 42.24869 | 19.32294 | 34074 ft | 481 kts | 331° |
| 2026-05-06 12:42 | 42.30850 | 19.28261 | 34077 ft | 479 kts | 328° |
| 2026-05-06 12:42 | 42.36761 | 19.24077 | 34077 ft | 480 kts | 329° |
| 2026-05-06 12:43 | 42.42700 | 19.19933 | 34078 ft | 480 kts | 329° |
| 2026-05-06 12:43 | 42.48657 | 19.15828 | 34069 ft | 480 kts | 329° |
| 2026-05-06 12:44 | 42.54615 | 19.11732 | 34074 ft | 480 kts | 329° |
| 2026-05-06 12:44 | 42.60588 | 19.07615 | 34073 ft | 482 kts | 329° |
| 2026-05-06 12:45 | 42.66566 | 19.03484 | 34062 ft | 482 kts | 329° |
| 2026-05-06 12:46 | 42.75495 | 18.97294 | 34066 ft | 481 kts | 329° |
| 2026-05-06 12:46 | 42.81460 | 18.93149 | 34060 ft | 481 kts | 329° |
| 2026-05-06 12:47 | 42.87428 | 18.88991 | 34063 ft | 482 kts | 329° |
| 2026-05-06 12:47 | 42.93395 | 18.84829 | 34056 ft | 481 kts | 329° |
| 2026-05-06 12:48 | 42.99357 | 18.80657 | 34050 ft | 482 kts | 329° |
| 2026-05-06 12:48 | 43.05329 | 18.76470 | 34061 ft | 483 kts | 329° |
| 2026-05-06 12:49 | 43.11305 | 18.72267 | 34042 ft | 483 kts | 329° |
| 2026-05-06 12:49 | 43.17289 | 18.68053 | 34043 ft | 483 kts | 329° |
| 2026-05-06 12:50 | 43.23267 | 18.63834 | 34033 ft | 482 kts | 329° |
| 2026-05-06 12:50 | 43.29238 | 18.59609 | 34036 ft | 483 kts | 329° |
| 2026-05-06 12:51 | 43.35208 | 18.55376 | 34037 ft | 483 kts | 329° |
| 2026-05-06 12:51 | 43.41179 | 18.51132 | 34035 ft | 482 kts | 329° |
| 2026-05-06 12:52 | 43.47107 | 18.46911 | 34037 ft | 483 kts | 329° |
| 2026-05-06 12:52 | 43.53071 | 18.42654 | 34036 ft | 485 kts | 330° |
| 2026-05-06 12:53 | 43.59073 | 18.38361 | 34025 ft | 485 kts | 329° |
| 2026-05-06 12:53 | 43.65060 | 18.34068 | 33985 ft | 485 kts | 329° |
| 2026-05-06 12:54 | 43.70916 | 18.29869 | 33967 ft | 462 kts | 329° |
| 2026-05-06 12:54 | 43.75646 | 18.26464 | 33970 ft | 462 kts | 329° |
| 2026-05-06 12:55 | 43.81392 | 18.22309 | 33968 ft | 471 kts | 329° |
| 2026-05-06 12:55 | 43.87251 | 18.18066 | 33969 ft | 479 kts | 329° |
| 2026-05-06 12:56 | 43.93195 | 18.13759 | 33985 ft | 483 kts | 329° |
| 2026-05-06 12:56 | 43.99147 | 18.09440 | 33971 ft | 483 kts | 329° |
| 2026-05-06 12:57 | 44.05098 | 18.05111 | 33961 ft | 483 kts | 329° |
| 2026-05-06 12:57 | 44.11072 | 18.00753 | 33950 ft | 486 kts | 329° |
| 2026-05-06 12:58 | 44.17054 | 17.96377 | 33950 ft | 483 kts | 329° |
| 2026-05-06 12:58 | 44.23002 | 17.92017 | 33941 ft | 483 kts | 329° |
| 2026-05-06 12:59 | 44.28947 | 17.87648 | 33929 ft | 483 kts | 329° |
| 2026-05-06 12:59 | 44.34884 | 17.83276 | 33939 ft | 483 kts | 329° |
| 2026-05-06 13:00 | 44.40804 | 17.78907 | 33923 ft | 484 kts | 328° |
| 2026-05-06 13:00 | 44.46760 | 17.74501 | 33921 ft | 484 kts | 328° |
| 2026-05-06 13:01 | 44.52722 | 17.70080 | 33920 ft | 484 kts | 328° |
| 2026-05-06 13:01 | 44.58675 | 17.65655 | 33911 ft | 484 kts | 328° |
| 2026-05-06 13:02 | 44.64610 | 17.61233 | 33913 ft | 484 kts | 328° |
| 2026-05-06 13:02 | 44.70534 | 17.56808 | 33908 ft | 485 kts | 328° |
| 2026-05-06 13:03 | 44.76485 | 17.52355 | 33907 ft | 484 kts | 328° |
| 2026-05-06 13:03 | 44.82441 | 17.47887 | 33900 ft | 483 kts | 327° |
| 2026-05-06 13:04 | 44.88363 | 17.43437 | 33904 ft | 482 kts | 327° |
| 2026-05-06 13:04 | 44.94293 | 17.38964 | 33906 ft | 485 kts | 327° |
| 2026-05-06 13:05 | 45.00245 | 17.34464 | 33890 ft | 485 kts | 327° |
| 2026-05-06 13:05 | 45.06198 | 17.29958 | 33894 ft | 484 kts | 327° |
| 2026-05-06 13:06 | 45.12132 | 17.25454 | 33896 ft | 484 kts | 327° |
| 2026-05-06 13:06 | 45.18062 | 17.20941 | 33893 ft | 484 kts | 327° |
| 2026-05-06 13:07 | 45.23963 | 17.16437 | 33900 ft | 486 kts | 327° |
| 2026-05-06 13:07 | 45.29925 | 17.11884 | 33902 ft | 485 kts | 327° |
| 2026-05-06 13:08 | 45.35873 | 17.07328 | 33895 ft | 485 kts | 327° |
| 2026-05-06 13:08 | 45.41819 | 17.02760 | 33901 ft | 485 kts | 327° |
| 2026-05-06 13:09 | 45.47767 | 16.98179 | 33907 ft | 485 kts | 327° |
| 2026-05-06 13:09 | 45.53717 | 16.93583 | 33907 ft | 488 kts | 326° |
| 2026-05-06 13:10 | 45.59593 | 16.89036 | 33909 ft | 488 kts | 326° |
| 2026-05-06 13:10 | 45.65565 | 16.84403 | 33909 ft | 488 kts | 326° |
| 2026-05-06 13:11 | 45.71526 | 16.79767 | 33910 ft | 488 kts | 326° |
| 2026-05-06 13:11 | 45.77467 | 16.75136 | 33908 ft | 486 kts | 326° |
| 2026-05-06 13:12 | 45.83417 | 16.70483 | 33913 ft | 488 kts | 326° |
| 2026-05-06 13:12 | 45.89379 | 16.65813 | 33912 ft | 488 kts | 326° |
| 2026-05-06 13:13 | 45.95328 | 16.61141 | 33912 ft | 488 kts | 326° |
| 2026-05-06 13:13 | 46.01236 | 16.56491 | 33911 ft | 486 kts | 326° |
| 2026-05-06 13:14 | 46.07168 | 16.51807 | 33917 ft | 486 kts | 326° |
| 2026-05-06 13:14 | 46.13102 | 16.47111 | 33910 ft | 488 kts | 326° |
| 2026-05-06 13:15 | 46.19051 | 16.42393 | 33910 ft | 488 kts | 326° |
| 2026-05-06 13:15 | 46.24984 | 16.37676 | 33913 ft | 486 kts | 325° |
| 2026-05-06 13:16 | 46.30907 | 16.32954 | 33911 ft | 486 kts | 325° |
| 2026-05-06 13:16 | 46.36878 | 16.28335 | 33907 ft | 490 kts | 331° |
| 2026-05-06 13:16 | 46.40158 | 16.26873 | 33914 ft | 500 kts | 343° |
| 2026-05-06 13:17 | 46.43597 | 16.25985 | 33930 ft | 503 kts | 345° |
| 2026-05-06 13:17 | 46.50524 | 16.24385 | 33900 ft | 504 kts | 345° |
| 2026-05-06 13:18 | 46.57440 | 16.22764 | 33915 ft | 504 kts | 345° |
| 2026-05-06 13:18 | 46.64360 | 16.21124 | 33917 ft | 504 kts | 345° |
| 2026-05-06 13:19 | 46.71183 | 16.19502 | 33915 ft | 500 kts | 345° |
| 2026-05-06 13:19 | 46.78046 | 16.17861 | 33910 ft | 500 kts | 345° |
| 2026-05-06 13:19 | 46.81459 | 16.17012 | 33753 ft | 495 kts | 344° |
| 2026-05-06 13:20 | 46.84850 | 16.16192 | 33232 ft | 492 kts | 345° |
| 2026-05-06 13:20 | 46.88236 | 16.15394 | 32614 ft | 492 kts | 345° |
| 2026-05-06 13:20 | 46.91611 | 16.14593 | 31981 ft | 491 kts | 345° |
| 2026-05-06 13:20 | 46.94989 | 16.13786 | 31310 ft | 492 kts | 346° |
| 2026-05-06 13:21 | 46.98372 | 16.12977 | 30622 ft | 494 kts | 346° |
| 2026-05-06 13:21 | 47.01769 | 16.12158 | 29879 ft | 496 kts | 346° |
| 2026-05-06 13:21 | 47.05184 | 16.11331 | 28933 ft | 499 kts | 346° |
| 2026-05-06 13:21 | 47.08625 | 16.10498 | 28083 ft | 502 kts | 347° |
| 2026-05-06 13:22 | 47.12061 | 16.09667 | 27422 ft | 496 kts | 347° |
| 2026-05-06 13:22 | 47.15434 | 16.08854 | 26613 ft | 487 kts | 347° |
| 2026-05-06 13:22 | 47.18767 | 16.08045 | 25801 ft | 484 kts | 347° |
| 2026-05-06 13:22 | 47.22085 | 16.07238 | 25024 ft | 482 kts | 347° |
| 2026-05-06 13:23 | 47.25380 | 16.06435 | 24260 ft | 479 kts | 347° |
| 2026-05-06 13:23 | 47.28322 | 16.05718 | 23604 ft | 476 kts | 347° |
| 2026-05-06 13:23 | 47.31578 | 16.04924 | 22838 ft | 473 kts | 347° |
| 2026-05-06 13:23 | 47.34798 | 16.04137 | 22368 ft | 463 kts | 347° |
| 2026-05-06 13:24 | 47.37946 | 16.03374 | 21886 ft | 453 kts | 347° |
| 2026-05-06 13:24 | 47.41022 | 16.02635 | 21439 ft | 443 kts | 347° |
| 2026-05-06 13:24 | 47.44040 | 16.01916 | 21003 ft | 434 kts | 347° |
| 2026-05-06 13:24 | 47.46992 | 16.01221 | 20613 ft | 425 kts | 347° |
| 2026-05-06 13:25 | 47.49884 | 16.00561 | 20166 ft | 416 kts | 341° |
| 2026-05-06 13:25 | 47.52723 | 16.00356 | 19720 ft | 415 kts | 1° |
| 2026-05-06 13:25 | 47.55568 | 16.00949 | 19352 ft | 409 kts | 5° |
| 2026-05-06 13:25 | 47.58363 | 16.01630 | 18984 ft | 403 kts | 8° |
| 2026-05-06 13:26 | 47.61019 | 16.02850 | 18623 ft | 399 kts | 22° |
| 2026-05-06 13:26 | 47.63510 | 16.04753 | 18265 ft | 409 kts | 27° |
| 2026-05-06 13:26 | 47.66075 | 16.06857 | 17963 ft | 435 kts | 27° |
| 2026-05-06 13:26 | 47.68794 | 16.09025 | 17924 ft | 452 kts | 24° |
| 2026-05-06 13:27 | 47.71721 | 16.10810 | 18326 ft | 454 kts | 15° |
| 2026-05-06 13:27 | 47.74728 | 16.12237 | 18690 ft | 439 kts | 12° |
| 2026-05-06 13:27 | 47.77540 | 16.13417 | 19371 ft | 406 kts | 13° |
| 2026-05-06 13:27 | 47.80267 | 16.14480 | 18832 ft | 403 kts | 1° |
| 2026-05-06 13:28 | 47.83030 | 16.15226 | 18216 ft | 404 kts | 2° |
| 2026-05-06 13:28 | 47.85817 | 16.15896 | 17555 ft | 408 kts | 8° |
| 2026-05-06 13:28 | 47.88603 | 16.16797 | 16876 ft | 412 kts | 11° |
| 2026-05-06 13:28 | 47.91407 | 16.17876 | 15974 ft | 422 kts | 13° |
| 2026-05-06 13:29 | 47.94281 | 16.19042 | 15132 ft | 430 kts | 13° |
| 2026-05-06 13:29 | 47.97165 | 16.20210 | 14467 ft | 426 kts | 13° |
| 2026-05-06 13:29 | 47.99999 | 16.21333 | 13558 ft | 416 kts | 13° |
| 2026-05-06 13:29 | 48.02781 | 16.22405 | 12508 ft | 414 kts | 13° |
| 2026-05-06 13:30 | 48.05587 | 16.23461 | 11827 ft | 416 kts | 12° |
| 2026-05-06 13:30 | 48.08340 | 16.24484 | 11515 ft | 408 kts | 12° |
| 2026-05-06 13:30 | 48.11103 | 16.25510 | 11242 ft | 400 kts | 12° |
| 2026-05-06 13:30 | 48.13741 | 16.26494 | 11008 ft | 391 kts | 12° |
| 2026-05-06 13:31 | 48.16354 | 16.27473 | 10788 ft | 382 kts | 12° |
| 2026-05-06 13:31 | 48.18904 | 16.28430 | 10572 ft | 374 kts | 12° |
| 2026-05-06 13:31 | 48.21402 | 16.29370 | 10386 ft | 366 kts | 12° |
| 2026-05-06 13:31 | 48.23850 | 16.30295 | 10161 ft | 359 kts | 13° |
| 2026-05-06 13:32 | 48.26249 | 16.31201 | 9963 ft | 352 kts | 12° |
| 2026-05-06 13:32 | 48.28618 | 16.32077 | 9505 ft | 351 kts | 12° |
| 2026-05-06 13:32 | 48.31024 | 16.32955 | 8699 ft | 361 kts | 12° |
| 2026-05-06 13:32 | 48.33514 | 16.33866 | 7762 ft | 374 kts | 13° |
| 2026-05-06 13:33 | 48.35967 | 16.35158 | 6891 ft | 383 kts | 29° |
| 2026-05-06 13:33 | 48.38029 | 16.37659 | 5991 ft | 369 kts | 53° |
| 2026-05-06 13:33 | 48.39181 | 16.40894 | 5097 ft | 347 kts | 78° |
| 2026-05-06 13:33 | 48.39323 | 16.44362 | 4197 ft | 323 kts | 105° |
| 2026-05-06 13:34 | 48.38436 | 16.47326 | 3281 ft | 305 kts | 133° |
| 2026-05-06 13:34 | 48.36791 | 16.49074 | 2897 ft | 270 kts | 160° |
| 2026-05-06 13:34 | 48.35101 | 16.49491 | 3081 ft | 233 kts | 178° |
| 2026-05-06 13:34 | 48.33496 | 16.49564 | 2591 ft | 231 kts | 174° |
| 2026-05-06 13:35 | 48.31944 | 16.49788 | 2499 ft | 220 kts | 177° |
| 2026-05-06 13:35 | 48.30384 | 16.50114 | 2614 ft | 233 kts | 170° |
| 2026-05-06 13:35 | 48.28831 | 16.50673 | 2729 ft | 222 kts | 167° |
| 2026-05-06 13:35 | 48.27410 | 16.51278 | 2802 ft | 202 kts | 166° |
| 2026-05-06 13:36 | 48.26148 | 16.51833 | 2938 ft | 176 kts | 167° |
| 2026-05-06 13:36 | 48.25045 | 16.52311 | 2951 ft | 155 kts | 168° |
| 2026-05-06 13:36 | 48.24060 | 16.52725 | 2930 ft | 141 kts | 169° |
| 2026-05-06 13:36 | 48.23097 | 16.53120 | 3013 ft | 148 kts | 169° |
| 2026-05-06 13:37 | 48.22038 | 16.53550 | 3135 ft | 165 kts | 168° |
| 2026-05-06 13:37 | 48.20942 | 16.54008 | 2934 ft | 162 kts | 168° |
| 2026-05-06 13:37 | 48.19857 | 16.54472 | 2476 ft | 163 kts | 168° |
| 2026-05-06 13:37 | 48.18766 | 16.54938 | 2061 ft | 161 kts | 168° |
| 2026-05-06 13:38 | 48.17722 | 16.55383 | 1837 ft | 152 kts | 168° |
| 2026-05-06 13:38 | 48.16730 | 16.55803 | 1640 ft | 144 kts | 169° |
| 2026-05-06 13:38 | 48.15790 | 16.56202 | 1439 ft | 137 kts | 169° |
| 2026-05-06 13:38 | 48.14884 | 16.56584 | 1268 ft | 133 kts | 166° |
| 2026-05-06 13:39 | 48.14013 | 16.56954 | 1097 ft | 126 kts | 165° |
| 2026-05-06 13:39 | 48.13181 | 16.57312 | 896 ft | 122 kts | 160° |
| 2026-05-06 13:39 | 48.12424 | 16.57671 | 685 ft | 109 kts | 160° |
| 2026-05-06 13:39 | 48.11609 | 16.57770 | 623 ft | 114 kts | 162° |